createdAt,value
2018-06-13T00:00:40.557Z,22.0
2018-06-13T00:01:42.218Z,22.4
2018-06-13T00:02:43.864Z,21.4
2018-06-13T00:03:45.540Z,21.8
2018-06-13T00:04:47.189Z,23.0
2018-06-13T00:05:48.849Z,23.0
2018-06-13T00:06:50.512Z,23.1
2018-06-13T00:07:52.161Z,22.7
2018-06-13T00:08:54.754Z,22.4
2018-06-13T00:09:56.398Z,23.4
2018-06-13T00:10:58.059Z,24.0
2018-06-13T00:11:59.709Z,22.6
2018-06-13T00:13:01.406Z,21.2
2018-06-13T00:14:03.067Z,23.1
2018-06-13T00:15:04.720Z,22.9
2018-06-13T00:16:06.380Z,21.9
2018-06-13T00:17:08.041Z,21.2
2018-06-13T00:18:09.695Z,22.9
2018-06-13T00:19:11.349Z,23.1
2018-06-13T00:20:13.000Z,22.9
2018-06-13T00:21:14.658Z,24.7
2018-06-13T00:22:16.310Z,24.2
2018-06-13T00:23:17.957Z,24.4
2018-06-13T00:24:19.614Z,23.5
2018-06-13T00:25:21.268Z,25.0
2018-06-13T00:26:22.941Z,24.3
2018-06-13T00:27:24.592Z,23.7
2018-06-13T00:28:26.249Z,23.6
2018-06-13T00:29:27.899Z,23.0
2018-06-13T00:30:29.547Z,23.7
2018-06-13T00:31:31.200Z,22.4
2018-06-13T00:32:32.854Z,22.2
2018-06-13T00:33:34.508Z,23.0
2018-06-13T00:34:36.164Z,22.6
2018-06-13T00:35:37.824Z,23.6
2018-06-13T00:36:39.485Z,21.7
2018-06-13T00:37:41.138Z,20.8
2018-06-13T00:38:42.796Z,21.3
2018-06-13T00:39:44.448Z,20.5
2018-06-13T00:40:46.109Z,20.4
2018-06-13T00:41:47.758Z,20.4
2018-06-13T00:42:49.414Z,18.9
2018-06-13T00:43:51.066Z,19.9
2018-06-13T00:44:52.727Z,20.2
2018-06-13T00:45:54.385Z,21.2
2018-06-13T00:46:56.053Z,20.9
2018-06-13T00:47:57.707Z,21.5
2018-06-13T00:48:59.364Z,19.3
2018-06-13T00:50:01.047Z,20.5
2018-06-13T00:51:02.700Z,21.2
2018-06-13T00:52:04.358Z,19.8
2018-06-13T00:53:06.016Z,19.8
2018-06-13T00:54:07.659Z,20.2
2018-06-13T00:55:09.305Z,21.7
2018-06-13T00:56:10.963Z,22.3
2018-06-13T00:57:12.619Z,21.1
2018-06-13T00:58:14.276Z,20.6
2018-06-13T00:59:15.924Z,20.6
2018-06-13T01:00:17.602Z,20.6
2018-06-13T01:01:19.252Z,21.0
2018-06-13T01:02:20.933Z,20.2
2018-06-13T01:03:22.569Z,19.9
2018-06-13T01:04:24.220Z,20.9
2018-06-13T01:05:25.878Z,19.0
2018-06-13T01:06:27.536Z,19.9
2018-06-13T01:07:29.192Z,20.0
2018-06-13T01:08:30.851Z,18.0
2018-06-13T01:09:32.506Z,20.3
2018-06-13T01:10:34.168Z,20.0
2018-06-13T01:11:35.826Z,22.8
2018-06-13T01:12:37.476Z,21.0
2018-06-13T01:13:39.133Z,21.4
2018-06-13T01:14:40.792Z,22.6
2018-06-13T01:15:43.326Z,21.3
2018-06-13T01:16:44.973Z,21.5
2018-06-13T01:17:46.629Z,20.6
2018-06-13T01:18:48.288Z,19.9
2018-06-13T01:19:49.936Z,19.3
2018-06-13T01:20:51.597Z,19.1
2018-06-13T01:21:53.254Z,19.2
2018-06-13T01:22:54.907Z,19.0
2018-06-13T01:23:56.557Z,18.3
2018-06-13T01:24:58.209Z,17.8
2018-06-13T01:25:59.866Z,17.3
2018-06-13T01:27:01.519Z,16.4
2018-06-13T01:28:03.166Z,16.0
2018-06-13T01:29:04.820Z,15.5
2018-06-13T01:30:06.469Z,14.8
2018-06-13T01:31:08.119Z,14.1
2018-06-13T01:32:09.776Z,14.3
2018-06-13T01:33:11.430Z,14.7
2018-06-13T01:34:13.089Z,14.2
2018-06-13T01:35:14.743Z,12.1
2018-06-13T01:36:16.401Z,13.3
2018-06-13T01:37:18.051Z,11.4
2018-06-13T01:38:19.709Z,12.8
2018-06-13T01:39:21.360Z,13.0
2018-06-13T01:40:23.029Z,12.4
2018-06-13T01:41:24.682Z,11.6
2018-06-13T01:42:26.333Z,12.1
2018-06-13T01:43:27.983Z,11.4
2018-06-13T01:44:29.634Z,12.0
2018-06-13T01:45:31.291Z,12.1
2018-06-13T01:46:32.951Z,11.8
2018-06-13T01:47:34.623Z,10.7
2018-06-13T01:48:36.273Z,10.9
2018-06-13T01:49:37.928Z,9.4
2018-06-13T01:50:39.584Z,8.7
2018-06-13T01:51:41.233Z,11.0
2018-06-13T01:52:42.882Z,9.6
2018-06-13T01:53:44.536Z,9.3
2018-06-13T01:54:46.743Z,8.9
2018-06-13T02:01:05.401Z,4.5
2018-06-13T02:02:07.050Z,4.7
2018-06-13T02:03:58.880Z,4.4
2018-06-13T02:05:00.560Z,3.7
2018-06-13T02:06:52.471Z,3.8
2018-06-13T02:07:54.126Z,3.4
2018-06-13T02:09:46.025Z,5.2
2018-06-13T02:10:47.671Z,5.8
2018-06-13T02:12:39.616Z,6.9
2018-06-13T02:13:41.261Z,7.2
2018-06-13T02:14:42.915Z,6.8
2018-06-13T02:15:44.561Z,8.8
2018-06-13T02:16:46.213Z,7.1
2018-06-13T02:17:47.867Z,8.1
2018-06-13T02:18:49.528Z,6.9
2018-06-13T02:19:51.182Z,8.7
2018-06-13T02:20:52.830Z,9.1
2018-06-13T02:21:54.497Z,9.2
2018-06-13T02:22:56.138Z,9.0
2018-06-13T02:23:57.796Z,7.7
2018-06-13T02:24:59.438Z,8.0
2018-06-13T02:26:01.120Z,8.6
2018-06-13T02:27:02.781Z,7.9
2018-06-13T02:28:04.434Z,8.0
2018-06-13T02:29:06.088Z,7.9
2018-06-13T02:30:07.737Z,9.3
2018-06-13T02:31:09.390Z,9.8
2018-06-13T02:32:11.058Z,9.3
2018-06-13T02:33:12.716Z,8.8
2018-06-13T02:34:14.374Z,8.1
2018-06-13T02:35:16.030Z,8.7
2018-06-13T02:36:18.591Z,9.1
2018-06-13T02:37:20.240Z,8.2
2018-06-13T02:38:21.897Z,8.3
2018-06-13T02:39:23.546Z,7.9
2018-06-13T02:40:25.200Z,6.1
2018-06-13T02:41:26.867Z,7.1
2018-06-13T02:42:28.521Z,6.8
2018-06-13T02:43:30.168Z,7.3
2018-06-13T02:44:31.831Z,8.0
2018-06-13T02:45:33.490Z,8.5
2018-06-13T02:46:35.133Z,7.4
2018-06-13T02:47:36.787Z,7.1
2018-06-13T02:48:38.445Z,7.2
2018-06-13T02:49:41.017Z,6.7
2018-06-13T02:50:42.666Z,7.0
2018-06-13T02:51:44.324Z,5.7
2018-06-13T02:52:45.987Z,6.1
2018-06-13T02:53:47.628Z,5.3
2018-06-13T02:54:49.285Z,5.4
2018-06-13T02:55:50.937Z,5.2
2018-06-13T02:56:52.587Z,4.5
2018-06-13T02:57:54.243Z,5.6
2018-06-13T02:58:55.896Z,5.6
2018-06-13T02:59:57.564Z,5.9
2018-06-13T03:00:59.214Z,6.4
2018-06-13T03:02:00.895Z,7.3
2018-06-13T03:03:02.560Z,7.9
2018-06-13T03:04:04.214Z,8.2
2018-06-13T03:05:05.861Z,7.8
2018-06-13T03:06:07.518Z,7.3
2018-06-13T03:07:09.179Z,6.6
2018-06-13T03:08:10.842Z,6.4
2018-06-13T03:09:12.498Z,7.3
2018-06-13T03:10:14.161Z,8.0
2018-06-13T03:11:15.815Z,8.7
2018-06-13T03:12:17.469Z,8.8
2018-06-13T03:13:19.122Z,8.6
2018-06-13T03:14:20.782Z,9.1
2018-06-13T03:15:22.431Z,9.6
2018-06-13T03:16:24.088Z,9.2
2018-06-13T03:17:25.745Z,9.0
2018-06-13T03:18:27.394Z,8.9
2018-06-13T03:19:29.054Z,8.8
2018-06-13T03:20:30.703Z,9.3
2018-06-13T03:21:32.363Z,8.7
2018-06-13T03:22:34.022Z,9.0
2018-06-13T03:23:35.681Z,9.0
2018-06-13T03:24:37.338Z,9.2
2018-06-13T03:25:38.995Z,8.3
2018-06-13T03:26:40.646Z,7.4
2018-06-13T03:27:42.310Z,7.9
2018-06-13T03:28:43.956Z,9.7
2018-06-13T03:29:45.611Z,8.1
2018-06-13T03:30:47.271Z,7.9
2018-06-13T03:31:48.933Z,8.0
2018-06-13T03:32:50.590Z,7.9
2018-06-13T03:33:52.240Z,8.0
2018-06-13T03:34:53.900Z,8.8
2018-06-13T03:35:55.553Z,9.4
2018-06-13T03:36:57.214Z,9.6
2018-06-13T03:37:58.868Z,8.0
2018-06-13T03:39:00.550Z,7.9
2018-06-13T03:40:02.207Z,7.1
2018-06-13T03:41:03.913Z,5.3
2018-06-13T03:42:05.525Z,6.7
2018-06-13T03:43:07.182Z,4.2
2018-06-13T03:44:08.831Z,3.2
2018-06-13T03:45:10.490Z,2.7
2018-06-13T03:46:12.141Z,3.7
2018-06-13T03:47:13.805Z,1.7
2018-06-13T03:48:15.473Z,0.7
2018-06-13T03:49:17.124Z,0.0
2018-06-13T03:50:19.117Z,0.0
2018-06-13T03:51:20.787Z,0.0
2018-06-13T03:52:22.440Z,0.0
2018-06-13T03:53:24.097Z,0.0
2018-06-13T03:54:26.618Z,0.7
2018-06-13T03:55:28.277Z,0.0
2018-06-13T03:56:29.929Z,0.4
2018-06-13T03:57:31.584Z,1.5
2018-06-13T03:58:33.243Z,2.6
2018-06-13T03:59:34.904Z,4.7
2018-06-13T04:00:36.551Z,5.3
2018-06-13T04:01:38.207Z,4.7
2018-06-13T04:02:39.859Z,4.6
2018-06-13T04:03:41.512Z,7.0
2018-06-13T04:04:43.168Z,5.6
2018-06-13T04:05:44.828Z,6.1
2018-06-13T04:06:46.481Z,6.5
2018-06-13T04:07:48.138Z,6.9
2018-06-13T04:08:49.804Z,6.3
2018-06-13T04:09:51.454Z,7.0
2018-06-13T04:10:53.111Z,8.0
2018-06-13T04:11:55.166Z,8.6
2018-06-13T04:12:56.819Z,8.1
2018-06-13T04:13:58.476Z,7.9
2018-06-13T04:15:00.136Z,8.7
2018-06-13T04:16:01.790Z,7.4
2018-06-13T04:17:03.443Z,7.3
2018-06-13T04:18:05.111Z,7.9
2018-06-13T04:19:06.770Z,8.1
2018-06-13T04:20:08.441Z,8.5
2018-06-13T04:21:10.101Z,8.2
2018-06-13T04:22:11.750Z,9.8
2018-06-13T04:23:13.413Z,8.7
2018-06-13T04:24:15.057Z,8.8
2018-06-13T04:25:16.726Z,9.1
2018-06-13T04:26:18.389Z,10.7
2018-06-13T04:27:20.062Z,12.5
2018-06-13T04:28:21.729Z,12.8
2018-06-13T04:29:23.383Z,13.3
2018-06-13T04:30:25.037Z,13.5
2018-06-13T04:31:26.692Z,13.9
2018-06-13T04:32:28.353Z,13.5
2018-06-13T04:33:30.014Z,13.2
2018-06-13T04:34:31.669Z,12.9
2018-06-13T04:35:33.331Z,14.6
2018-06-13T04:36:35.792Z,15.9
2018-06-13T04:37:36.602Z,16.6
2018-06-13T04:38:38.268Z,17.2
2018-06-13T04:39:39.934Z,18.3
2018-06-13T04:40:41.581Z,19.1
2018-06-13T04:41:43.243Z,19.0
2018-06-13T04:42:44.899Z,18.6
2018-06-13T04:43:46.561Z,18.5
2018-06-13T04:44:48.227Z,18.1
2018-06-13T04:45:49.881Z,18.4
2018-06-13T04:46:51.546Z,18.1
2018-06-13T04:47:53.201Z,19.4
2018-06-13T04:48:54.917Z,18.0
2018-06-13T04:49:56.573Z,17.1
2018-06-13T04:50:58.228Z,17.2
2018-06-13T04:51:59.889Z,17.2
2018-06-13T04:53:01.546Z,16.4
2018-06-13T04:54:03.206Z,16.1
2018-06-13T04:55:04.865Z,17.3
2018-06-13T04:56:06.519Z,16.2
2018-06-13T04:57:08.176Z,17.2
2018-06-13T04:58:09.840Z,17.0
2018-06-13T04:59:11.497Z,15.9
2018-06-13T05:00:13.152Z,17.1
2018-06-13T05:01:14.798Z,18.1
2018-06-13T05:02:16.460Z,17.3
2018-06-13T05:03:18.140Z,19.1
2018-06-13T05:04:19.798Z,19.1
2018-06-13T05:05:21.462Z,19.7
2018-06-13T05:06:23.128Z,19.8
2018-06-13T05:07:24.782Z,18.4
2018-06-13T05:08:26.441Z,17.5
2018-06-13T05:09:28.100Z,16.8
2018-06-13T05:10:29.754Z,18.1
2018-06-13T05:11:31.410Z,17.1
2018-06-13T05:12:33.699Z,17.3
2018-06-13T05:13:35.302Z,15.6
2018-06-13T05:14:37.839Z,15.1
2018-06-13T05:15:39.401Z,12.4
2018-06-13T05:16:41.071Z,14.3
2018-06-13T05:17:42.741Z,13.8
2018-06-13T05:18:44.406Z,13.8
2018-06-13T05:19:46.065Z,15.0
2018-06-13T05:20:47.720Z,13.2
2018-06-13T05:21:49.378Z,11.2
2018-06-13T05:22:51.044Z,11.7
2018-06-13T05:23:52.713Z,10.4
2018-06-13T05:24:54.362Z,7.1
2018-06-13T05:25:56.038Z,3.6
2018-06-13T05:26:57.690Z,2.7
2018-06-13T05:27:59.341Z,2.8
2018-06-13T05:29:01.034Z,3.1
2018-06-13T05:30:02.696Z,5.2
2018-06-13T05:31:04.368Z,3.1
2018-06-13T05:32:06.024Z,0.0
2018-06-13T05:33:07.671Z,1.2
2018-06-13T05:34:09.331Z,2.4
2018-06-13T05:35:10.992Z,0.2
2018-06-13T05:36:12.646Z,0.0
2018-06-13T05:37:14.312Z,5.9
2018-06-13T05:38:15.967Z,1.8
2018-06-13T05:39:17.630Z,0.0
2018-06-13T05:40:19.299Z,0.4
2018-06-13T05:41:20.956Z,0.8
2018-06-13T05:42:22.677Z,0.0
2018-06-13T05:43:24.336Z,0.0
2018-06-13T05:44:26.010Z,0.1
2018-06-13T05:45:27.674Z,0.0
2018-06-13T05:46:29.329Z,2.8
2018-06-13T05:47:30.989Z,7.0
2018-06-13T05:48:32.659Z,5.2
2018-06-13T05:49:34.311Z,6.9
2018-06-13T05:50:35.969Z,11.1
2018-06-13T05:51:37.635Z,11.7
2018-06-13T05:52:39.315Z,8.8
2018-06-13T05:53:40.972Z,10.7
2018-06-13T05:54:42.634Z,11.2
2018-06-13T05:55:44.305Z,11.9
2018-06-13T06:01:53.912Z,13.1
2018-06-13T06:02:55.561Z,19.1
2018-06-13T06:04:47.466Z,20.3
2018-06-13T06:05:49.157Z,20.6
2018-06-13T06:07:41.033Z,21.0
2018-06-13T06:08:42.719Z,22.6
2018-06-13T06:10:34.743Z,22.5
2018-06-13T06:11:36.261Z,22.4
2018-06-13T06:12:37.928Z,24.1
2018-06-13T06:13:39.586Z,26.2
2018-06-13T06:14:41.251Z,25.4
2018-06-13T06:15:42.932Z,25.0
2018-06-13T06:16:44.613Z,25.5
2018-06-13T06:17:46.270Z,26.5
2018-06-13T06:18:47.935Z,28.7
2018-06-13T06:19:49.584Z,27.4
2018-06-13T06:20:51.310Z,28.4
2018-06-13T06:21:53.096Z,32.2
2018-06-13T06:22:54.760Z,30.3
2018-06-13T06:23:56.427Z,29.8
2018-06-13T06:24:58.907Z,27.4
2018-06-13T06:26:00.591Z,30.5
2018-06-13T06:27:02.261Z,30.8
2018-06-13T06:28:03.919Z,29.7
2018-06-13T06:29:05.595Z,30.6
2018-06-13T06:30:07.261Z,31.7
2018-06-13T06:31:08.929Z,32.6
2018-06-13T06:32:10.598Z,34.1
2018-06-13T06:33:12.245Z,34.5
2018-06-13T06:34:13.912Z,38.3
2018-06-13T06:35:15.567Z,38.9
2018-06-13T06:36:17.235Z,35.0
2018-06-13T06:37:18.902Z,38.5
2018-06-13T06:38:20.567Z,38.9
2018-06-13T06:39:22.252Z,41.4
2018-06-13T06:40:23.912Z,41.4
2018-06-13T06:41:25.567Z,39.3
2018-06-13T06:42:27.244Z,41.6
2018-06-13T06:43:28.905Z,44.3
2018-06-13T06:44:30.570Z,42.1
2018-06-13T06:45:32.243Z,42.0
2018-06-13T06:46:33.898Z,43.8
2018-06-13T06:47:35.561Z,47.8
2018-06-13T06:48:37.222Z,50.2
2018-06-13T06:49:38.917Z,51.8
2018-06-13T06:50:40.548Z,54.1
2018-06-13T06:51:42.206Z,58.0
2018-06-13T06:52:43.883Z,53.2
2018-06-13T06:53:45.556Z,58.1
2018-06-13T06:54:47.212Z,57.2
2018-06-13T06:55:48.879Z,56.9
2018-06-13T06:56:50.548Z,56.3
2018-06-13T06:57:52.219Z,57.0
2018-06-13T06:58:53.880Z,61.2
2018-06-13T06:59:55.540Z,65.4
2018-06-13T07:00:57.213Z,64.7
2018-06-13T07:01:58.875Z,62.6
2018-06-13T07:03:00.568Z,63.4
2018-06-13T07:04:02.229Z,65.5
2018-06-13T07:05:03.895Z,61.4
2018-06-13T07:06:07.658Z,61.8
2018-06-13T07:07:10.410Z,66.0
2018-06-13T07:08:12.070Z,61.6
2018-06-13T07:09:13.723Z,65.0
2018-06-13T07:10:15.378Z,64.6
2018-06-13T07:11:17.050Z,60.7
2018-06-13T07:12:18.704Z,63.5
2018-06-13T07:13:20.371Z,61.2
2018-06-13T07:14:22.037Z,58.7
2018-06-13T07:15:23.701Z,55.3
2018-06-13T07:16:25.353Z,56.2
2018-06-13T07:17:27.016Z,58.4
2018-06-13T07:18:28.675Z,57.1
2018-06-13T07:19:30.335Z,58.8
2018-06-13T07:20:31.996Z,57.1
2018-06-13T07:21:33.664Z,56.0
2018-06-13T07:22:35.317Z,56.2
2018-06-13T07:23:37.100Z,57.7
2018-06-13T07:24:38.857Z,61.2
2018-06-13T07:25:40.464Z,58.3
2018-06-13T07:26:42.132Z,57.7
2018-06-13T07:27:43.797Z,56.6
2018-06-13T07:28:45.463Z,58.1
2018-06-13T07:29:47.138Z,58.0
2018-06-13T07:30:48.802Z,57.3
2018-06-13T07:31:50.464Z,57.8
2018-06-13T07:32:52.122Z,52.5
2018-06-13T07:33:53.774Z,52.3
2018-06-13T07:34:55.438Z,49.7
2018-06-13T07:35:57.126Z,47.1
2018-06-13T07:36:58.797Z,44.1
2018-06-13T07:38:00.478Z,43.5
2018-06-13T07:39:02.135Z,43.8
2018-06-13T07:40:03.798Z,43.6
2018-06-13T07:41:05.464Z,41.0
2018-06-13T07:42:07.139Z,40.4
2018-06-13T07:43:08.809Z,39.3
2018-06-13T07:44:10.636Z,35.0
2018-06-13T07:45:12.941Z,31.8
2018-06-13T07:46:14.605Z,30.0
2018-06-13T07:47:16.276Z,25.1
2018-06-13T07:48:17.945Z,25.8
2018-06-13T07:49:19.605Z,20.4
2018-06-13T07:50:21.277Z,13.6
2018-06-13T07:51:22.941Z,11.7
2018-06-13T07:52:24.599Z,12.5
2018-06-13T07:53:26.269Z,12.6
2018-06-13T07:54:27.931Z,12.4
2018-06-13T07:55:29.617Z,12.1
2018-06-13T07:56:31.277Z,17.0
2018-06-13T07:57:32.933Z,18.2
2018-06-13T07:58:34.597Z,20.8
2018-06-13T07:59:36.263Z,22.5
2018-06-13T08:00:37.924Z,23.0
2018-06-13T08:01:39.588Z,36.1
2018-06-13T08:02:41.256Z,36.2
2018-06-13T08:03:42.926Z,47.1
2018-06-13T08:04:44.596Z,45.1
2018-06-13T08:05:46.259Z,42.0
2018-06-13T08:06:47.929Z,47.2
2018-06-13T08:07:49.588Z,52.3
2018-06-13T08:08:51.267Z,52.9
2018-06-13T08:09:52.927Z,54.5
2018-06-13T08:10:54.590Z,62.2
2018-06-13T08:11:56.259Z,68.2
2018-06-13T08:12:57.921Z,76.0
2018-06-13T08:13:59.587Z,76.0
2018-06-13T08:15:01.287Z,68.8
2018-06-13T08:16:02.948Z,70.9
2018-06-13T08:17:04.618Z,66.9
2018-06-13T08:18:06.291Z,65.6
2018-06-13T08:19:07.956Z,59.6
2018-06-13T08:20:09.627Z,58.8
2018-06-13T08:21:11.306Z,56.5
2018-06-13T08:22:12.971Z,50.9
2018-06-13T08:23:14.634Z,45.5
2018-06-13T08:24:16.300Z,40.8
2018-06-13T08:25:17.975Z,39.5
2018-06-13T08:26:19.649Z,40.4
2018-06-13T08:27:21.320Z,41.0
2018-06-13T08:28:22.979Z,36.6
2018-06-13T08:29:24.636Z,35.6
2018-06-13T08:30:26.306Z,31.1
2018-06-13T08:31:27.966Z,31.6
2018-06-13T08:32:29.627Z,26.3
2018-06-13T08:33:31.295Z,25.7
2018-06-13T08:34:32.965Z,28.9
2018-06-13T08:35:34.626Z,31.8
2018-06-13T08:36:36.287Z,28.6
2018-06-13T08:37:37.946Z,30.7
2018-06-13T08:38:39.616Z,32.7
2018-06-13T08:39:41.274Z,34.5
2018-06-13T08:40:43.520Z,42.0
2018-06-13T08:41:45.172Z,42.8
2018-06-13T08:42:46.842Z,51.6
2018-06-13T08:43:48.523Z,51.2
2018-06-13T08:44:50.163Z,51.9
2018-06-13T08:45:51.820Z,52.2
2018-06-13T08:46:53.539Z,57.1
2018-06-13T08:47:55.209Z,59.9
2018-06-13T08:48:56.871Z,64.2
2018-06-13T08:49:58.541Z,62.8
2018-06-13T08:51:00.201Z,67.8
2018-06-13T08:52:01.867Z,62.6
2018-06-13T08:53:03.528Z,66.7
2018-06-13T08:54:05.211Z,67.3
2018-06-13T08:55:06.877Z,64.9
2018-06-13T08:56:08.555Z,69.5
2018-06-13T08:57:10.216Z,67.6
2018-06-13T08:58:11.897Z,71.4
2018-06-13T08:59:13.555Z,70.8
2018-06-13T09:00:15.213Z,69.6
2018-06-13T09:01:16.889Z,70.8
2018-06-13T09:02:18.595Z,68.4
2018-06-13T09:03:20.307Z,64.2
2018-06-13T09:04:21.928Z,66.3
2018-06-13T09:05:23.598Z,66.7
2018-06-13T09:06:25.270Z,68.8
2018-06-13T09:07:26.928Z,69.3
2018-06-13T09:08:28.599Z,70.1
2018-06-13T09:09:30.257Z,70.1
2018-06-13T09:10:31.927Z,66.4
2018-06-13T09:11:33.595Z,60.2
2018-06-13T09:12:35.261Z,57.6
2018-06-13T09:13:36.916Z,56.3
2018-06-13T09:14:38.594Z,56.3
2018-06-13T09:15:40.252Z,54.2
2018-06-13T09:16:41.919Z,53.1
2018-06-13T09:17:43.582Z,54.2
2018-06-13T09:18:45.271Z,50.9
2018-06-13T09:19:46.936Z,54.4
2018-06-13T09:20:48.604Z,52.8
2018-06-13T09:21:50.261Z,56.7
2018-06-13T09:22:51.922Z,50.4
2018-06-13T09:23:53.607Z,50.5
2018-06-13T09:24:55.274Z,48.2
2018-06-13T09:25:56.927Z,50.3
2018-06-13T09:26:58.586Z,47.3
2018-06-13T09:28:00.247Z,46.0
2018-06-13T09:29:01.915Z,46.6
2018-06-13T09:30:03.575Z,45.5
2018-06-13T09:31:05.238Z,44.2
2018-06-13T09:32:06.905Z,44.2
2018-06-13T09:33:08.568Z,45.4
2018-06-13T09:34:10.234Z,46.4
2018-06-13T09:35:11.904Z,49.0
2018-06-13T09:36:13.566Z,50.8
2018-06-13T09:37:15.224Z,48.3
2018-06-13T09:38:16.891Z,51.6
2018-06-13T09:39:18.556Z,54.3
2018-06-13T09:40:20.219Z,54.5
2018-06-13T09:41:21.881Z,57.5
2018-06-13T09:42:23.531Z,58.8
2018-06-13T09:43:25.194Z,59.9
2018-06-13T09:44:26.858Z,61.7
2018-06-13T09:45:28.525Z,61.7
2018-06-13T09:46:30.183Z,64.6
2018-06-13T09:47:31.846Z,66.5
2018-06-13T09:48:33.508Z,63.7
2018-06-13T09:49:35.166Z,61.5
2018-06-13T09:50:36.835Z,62.0
2018-06-13T09:51:39.413Z,62.1
2018-06-13T09:52:41.080Z,64.7
2018-06-13T09:53:42.741Z,59.8
2018-06-13T09:54:44.463Z,62.5
2018-06-13T10:01:33.482Z,61.4
2018-06-13T10:02:35.138Z,66.4
2018-06-13T10:04:26.949Z,65.1
2018-06-13T10:05:28.607Z,66.0
2018-06-13T10:07:20.516Z,66.4
2018-06-13T10:08:22.175Z,63.3
2018-06-13T10:10:13.980Z,64.0
2018-06-13T10:11:15.701Z,61.8
2018-06-13T10:13:07.594Z,57.7
2018-06-13T10:14:09.214Z,57.2
2018-06-13T10:16:01.136Z,53.6
2018-06-13T10:17:02.803Z,55.8
2018-06-13T10:18:04.463Z,52.5
2018-06-13T10:19:06.121Z,51.6
2018-06-13T10:20:07.783Z,55.7
2018-06-13T10:21:09.447Z,57.4
2018-06-13T10:22:11.153Z,55.4
2018-06-13T10:23:12.791Z,52.7
2018-06-13T10:24:14.483Z,53.9
2018-06-13T10:25:16.147Z,52.9
2018-06-13T10:26:17.817Z,53.7
2018-06-13T10:27:19.480Z,51.7
2018-06-13T10:28:21.144Z,48.2
2018-06-13T10:29:22.803Z,48.6
2018-06-13T10:30:24.477Z,51.4
2018-06-13T10:31:26.134Z,49.3
2018-06-13T10:32:27.800Z,47.4
2018-06-13T10:33:29.462Z,45.9
2018-06-13T10:34:31.126Z,45.0
2018-06-13T10:35:32.795Z,46.8
2018-06-13T10:36:34.462Z,49.1
2018-06-13T10:37:36.131Z,49.0
2018-06-13T10:38:37.793Z,47.7
2018-06-13T10:39:39.462Z,47.2
2018-06-13T10:40:41.129Z,46.2
2018-06-13T10:41:42.796Z,48.2
2018-06-13T10:42:44.450Z,46.1
2018-06-13T10:43:46.114Z,46.9
2018-06-13T10:44:47.795Z,48.7
2018-06-13T10:45:49.452Z,45.3
2018-06-13T10:46:51.133Z,45.0
2018-06-13T10:47:52.788Z,46.9
2018-06-13T10:48:54.454Z,46.5
2018-06-13T10:49:56.113Z,47.1
2018-06-13T10:50:57.777Z,50.6
2018-06-13T10:51:59.442Z,50.5
2018-06-13T10:53:01.172Z,48.5
2018-06-13T10:54:02.838Z,48.2
2018-06-13T10:55:04.507Z,48.9
2018-06-13T10:56:06.172Z,52.7
2018-06-13T10:57:07.863Z,53.1
2018-06-13T10:58:09.521Z,55.7
2018-06-13T10:59:11.196Z,55.2
2018-06-13T11:00:13.029Z,58.7
2018-06-13T11:01:14.922Z,53.3
2018-06-13T11:02:16.751Z,52.4
2018-06-13T11:03:18.406Z,50.6
2018-06-13T11:04:20.272Z,53.7
2018-06-13T11:05:22.938Z,47.9
2018-06-13T11:06:24.577Z,48.3
2018-06-13T11:07:26.247Z,44.6
2018-06-13T11:08:28.036Z,41.7
2018-06-13T11:09:29.942Z,38.4
2018-06-13T11:10:31.616Z,39.3
2018-06-13T11:11:33.525Z,36.9
2018-06-13T11:12:35.608Z,36.7
2018-06-13T11:13:37.589Z,35.4
2018-06-13T11:14:39.261Z,35.8
2018-06-13T11:15:40.945Z,38.6
2018-06-13T11:16:42.777Z,36.1
2018-06-13T11:17:44.825Z,39.6
2018-06-13T11:18:46.613Z,42.4
2018-06-13T11:19:48.333Z,39.0
2018-06-13T11:20:51.104Z,38.7
2018-06-13T11:21:52.769Z,39.0
2018-06-13T11:22:54.640Z,38.9
2018-06-13T11:23:56.314Z,37.8
2018-06-13T11:24:57.983Z,39.1
2018-06-13T11:25:59.648Z,39.6
2018-06-13T11:27:01.328Z,39.6
2018-06-13T11:28:03.119Z,41.0
2018-06-13T11:29:04.855Z,38.3
2018-06-13T11:30:06.661Z,40.7
2018-06-13T11:31:08.327Z,40.3
2018-06-13T11:32:10.128Z,38.3
2018-06-13T11:33:11.743Z,38.6
2018-06-13T11:34:13.493Z,37.8
2018-06-13T11:35:17.122Z,37.2
2018-06-13T11:36:18.759Z,36.9
2018-06-13T11:37:20.422Z,34.4
2018-06-13T11:38:22.087Z,38.8
2018-06-13T11:39:23.815Z,33.1
2018-06-13T11:40:25.487Z,34.0
2018-06-13T11:41:27.202Z,38.1
2018-06-13T11:42:28.833Z,39.9
2018-06-13T11:43:30.759Z,39.9
2018-06-13T11:44:32.493Z,40.6
2018-06-13T11:45:34.291Z,38.6
2018-06-13T11:46:35.992Z,36.8
2018-06-13T11:47:38.507Z,40.7
2018-06-13T11:48:40.356Z,38.1
2018-06-13T11:49:42.013Z,37.0
2018-06-13T11:50:43.688Z,41.4
2018-06-13T11:51:45.339Z,43.3
2018-06-13T11:52:47.052Z,45.2
2018-06-13T11:53:48.829Z,45.9
2018-06-13T11:54:50.791Z,45.3
2018-06-13T11:55:52.562Z,47.6
2018-06-13T11:56:54.284Z,51.6
2018-06-13T11:57:55.952Z,49.2
2018-06-13T11:58:57.754Z,50.9
2018-06-13T11:59:59.416Z,45.6
2018-06-13T12:01:01.297Z,45.7
2018-06-13T12:02:03.059Z,48.1
2018-06-13T12:03:04.794Z,47.5
2018-06-13T12:04:06.701Z,49.8
2018-06-13T12:05:08.369Z,51.1
2018-06-13T12:06:10.319Z,50.5
2018-06-13T12:07:12.059Z,57.3
2018-06-13T12:08:13.733Z,57.2
2018-06-13T12:09:15.412Z,53.6
2018-06-13T12:10:17.076Z,58.3
2018-06-13T12:11:18.777Z,55.7
2018-06-13T12:12:20.430Z,62.1
2018-06-13T12:13:22.132Z,61.7
2018-06-13T12:14:23.836Z,62.7
2018-06-13T12:15:25.592Z,65.7
2018-06-13T12:16:27.340Z,66.8
2018-06-13T12:17:29.306Z,61.7
2018-06-13T12:18:30.977Z,65.2
2018-06-13T12:19:32.654Z,65.5
2018-06-13T12:20:34.355Z,64.5
2018-06-13T12:21:35.986Z,67.8
2018-06-13T12:22:38.168Z,63.2
2018-06-13T12:23:39.694Z,65.6
2018-06-13T12:24:42.038Z,66.0
2018-06-13T12:25:43.805Z,68.0
2018-06-13T12:26:45.374Z,67.6
2018-06-13T12:27:47.158Z,70.3
2018-06-13T12:28:48.834Z,70.2
2018-06-13T12:29:50.502Z,73.8
2018-06-13T12:30:52.184Z,70.9
2018-06-13T12:31:53.852Z,73.0
2018-06-13T12:32:55.520Z,73.4
2018-06-13T12:33:57.192Z,73.0
2018-06-13T12:34:58.849Z,68.0
2018-06-13T12:36:00.665Z,71.3
2018-06-13T12:37:02.540Z,72.2
2018-06-13T12:38:04.205Z,71.5
2018-06-13T12:39:06.790Z,67.9
2018-06-13T12:40:08.468Z,70.2
2018-06-13T12:41:10.122Z,71.1
2018-06-13T12:42:12.187Z,70.6
2018-06-13T12:43:13.860Z,68.0
2018-06-13T12:44:15.538Z,69.5
2018-06-13T12:45:17.217Z,68.0
2018-06-13T12:46:18.886Z,70.2
2018-06-13T12:47:20.562Z,72.7
2018-06-13T12:48:22.345Z,74.2
2018-06-13T12:49:24.092Z,74.5
2018-06-13T12:50:25.801Z,75.1
2018-06-13T12:51:28.072Z,71.3
2018-06-13T12:52:29.819Z,70.5
2018-06-13T12:53:31.725Z,73.6
2018-06-13T12:54:33.485Z,72.7
2018-06-13T12:55:35.197Z,75.2
2018-06-13T12:56:36.881Z,72.0
2018-06-13T12:57:38.626Z,70.6
2018-06-13T12:58:40.443Z,70.2
2018-06-13T12:59:42.099Z,67.4
2018-06-13T13:00:43.769Z,69.6
2018-06-13T13:01:45.431Z,67.7
2018-06-13T13:02:47.179Z,70.4
2018-06-13T13:03:49.240Z,72.1
2018-06-13T13:04:51.262Z,71.6
2018-06-13T13:05:53.208Z,71.0
2018-06-13T13:06:55.447Z,69.7
2018-06-13T13:07:57.107Z,68.9
2018-06-13T13:08:58.782Z,68.8
2018-06-13T13:10:00.603Z,68.0
2018-06-13T13:11:02.266Z,66.5
2018-06-13T13:12:04.134Z,65.6
2018-06-13T13:13:05.939Z,61.5
2018-06-13T13:14:07.620Z,59.1
2018-06-13T13:15:09.333Z,55.4
2018-06-13T13:16:11.006Z,51.2
2018-06-13T13:17:12.806Z,51.1
2018-06-13T13:18:14.476Z,52.3
2018-06-13T13:19:16.152Z,48.8
2018-06-13T13:20:17.885Z,48.6
2018-06-13T13:21:19.672Z,47.0
2018-06-13T13:22:21.341Z,47.2
2018-06-13T13:23:23.013Z,47.2
2018-06-13T13:24:24.675Z,41.3
2018-06-13T13:25:26.736Z,47.4
2018-06-13T13:26:28.407Z,43.5
2018-06-13T13:27:30.230Z,43.0
2018-06-13T13:28:31.899Z,45.4
2018-06-13T13:29:33.741Z,45.4
2018-06-13T13:30:35.425Z,44.3
2018-06-13T13:31:37.176Z,44.1
2018-06-13T13:32:38.906Z,46.2
2018-06-13T13:33:40.640Z,46.5
2018-06-13T13:34:42.418Z,44.6
2018-06-13T13:35:44.148Z,47.8
2018-06-13T13:36:45.920Z,48.9
2018-06-13T13:37:47.596Z,48.9
2018-06-13T13:38:49.253Z,47.8
2018-06-13T13:39:50.920Z,46.3
2018-06-13T13:40:52.593Z,48.6
2018-06-13T13:41:54.262Z,53.9
2018-06-13T13:42:55.980Z,57.4
2018-06-13T13:43:57.648Z,58.6
2018-06-13T13:44:59.312Z,63.3
2018-06-13T13:46:01.039Z,64.9
2018-06-13T13:47:03.667Z,66.6
2018-06-13T13:48:05.334Z,70.2
2018-06-13T13:49:07.012Z,73.7
2018-06-13T13:50:08.699Z,74.6
2018-06-13T13:51:10.359Z,72.6
2018-06-13T13:52:12.029Z,76.3
2018-06-13T13:53:13.692Z,73.5
2018-06-13T13:54:15.613Z,73.7
2018-06-13T13:55:17.244Z,75.1
2018-06-13T14:01:06.205Z,75.3
2018-06-13T14:02:07.855Z,73.9
2018-06-13T14:03:59.707Z,71.6
2018-06-13T14:05:01.590Z,68.1
2018-06-13T14:06:53.505Z,68.9
2018-06-13T14:07:55.507Z,69.4
2018-06-13T14:09:47.355Z,69.1
2018-06-13T14:10:49.016Z,68.4
2018-06-13T14:12:41.675Z,67.8
2018-06-13T14:13:43.339Z,67.9
2018-06-13T14:15:35.198Z,57.9
2018-06-13T14:16:36.864Z,61.7
2018-06-13T14:18:28.688Z,61.4
2018-06-13T14:19:30.357Z,60.9
2018-06-13T14:21:22.237Z,59.1
2018-06-13T14:22:23.998Z,57.3
2018-06-13T14:24:15.820Z,55.3
2018-06-13T14:25:17.485Z,53.0